Time;durP1;ratioP1;P1;durP2;ratioP2;P2;SDS_P1;SDS_P2;PMS_P1;PMS_P2;Temp;Humidity;BMP_temperature;BMP_pressure;BME280_temperature;BME280_humidity;BME280_pressure;Samples;Min_cycle;Max_cycle;Signal;HPM_P1;HPM_P2
2023/05/12 00:00:37;;;;;;;41.38;25.50;;;12.60;99.90;;;;;;5050350;28;20795;-71
2023/05/12 00:03:04;;;;;;;38.25;25.40;;;12.50;99.90;;;;;;5067192;28;20415;-73
2023/05/12 00:05:31;;;;;;;38.30;25.40;;;12.50;99.90;;;;;;5054369;28;20439;-70
2023/05/12 00:07:58;;;;;;;40.83;26.05;;;12.50;99.90;;;;;;5039684;28;20422;-72
2023/05/12 00:10:27;;;;;;;47.40;26.83;;;12.50;99.90;;;;;;5059525;28;20423;-70
2023/05/12 00:12:54;;;;;;;38.17;25.67;;;12.50;99.90;;;;;;5044865;28;20785;-71
2023/05/12 00:15:22;;;;;;;45.28;27.45;;;12.50;99.90;;;;;;5039194;28;20433;-71
2023/05/12 00:17:51;;;;;;;37.25;24.27;;;12.50;99.90;;;;;;5058861;28;20415;-71
2023/05/12 00:20:18;;;;;;;37.57;23.83;;;12.50;99.90;;;;;;5068064;28;20448;-71
2023/05/12 00:22:44;;;;;;;34.83;23.55;;;12.40;99.90;;;;;;5043961;28;20945;-71
2023/05/12 00:25:11;;;;;;;38.83;25.17;;;12.40;99.90;;;;;;5054486;28;20423;-71
2023/05/12 00:27:38;;;;;;;40.13;25.38;;;12.30;99.90;;;;;;5060284;28;20433;-71
2023/05/12 00:30:06;;;;;;;51.63;28.48;;;12.30;99.90;;;;;;5045431;28;20428;-70
2023/05/12 00:32:34;;;;;;;47.97;28.70;;;12.40;99.90;;;;;;5071096;28;20423;-71
2023/05/12 00:35:01;;;;;;;51.08;29.10;;;12.40;99.90;;;;;;5044148;28;20419;-71
2023/05/12 00:37:28;;;;;;;47.45;28.98;;;12.40;99.90;;;;;;5060768;28;20947;-71
2023/05/12 00:39:55;;;;;;;51.08;30.98;;;12.40;99.90;;;;;;5053074;28;20523;-71
2023/05/12 00:42:21;;;;;;;56.70;32.87;;;12.50;99.90;;;;;;5071291;28;20995;-71
2023/05/12 00:44:48;;;;;;;63.90;34.60;;;12.50;99.90;;;;;;5071333;28;20412;-71
2023/05/12 00:47:15;;;;;;;60.90;34.70;;;12.50;99.90;;;;;;5059713;28;20415;-71
2023/05/12 00:49:43;;;;;;;63.65;35.20;;;12.50;99.90;;;;;;5043935;28;20429;-71
2023/05/12 00:52:10;;;;;;;62.83;34.65;;;12.50;99.90;;;;;;5047043;28;20430;-70
2023/05/12 00:54:38;;;;;;;66.53;35.55;;;12.50;99.90;;;;;;5055879;28;20885;-73
2023/05/12 00:57:06;;;;;;;68.40;35.60;;;12.60;99.90;;;;;;5060656;28;20433;-71
2023/05/12 00:59:32;;;;;;;62.20;34.37;;;12.60;99.90;;;;;;5053339;28;20419;-71
2023/05/12 01:01:59;;;;;;;59.27;34.33;;;12.60;99.90;;;;;;5058890;28;20828;-72
2023/05/12 01:04:28;;;;;;;62.55;35.70;;;12.60;99.90;;;;;;5046514;28;20422;-72
2023/05/12 01:06:59;;;;;;;64.20;35.00;;;12.60;99.90;;;;;;5051812;28;20471;-73
2023/05/12 01:09:26;;;;;;;65.93;35.13;;;12.60;99.90;;;;;;5050387;28;20427;-72
2023/05/12 01:11:53;;;;;;;69.37;36.40;;;12.60;99.90;;;;;;5048692;28;20432;-72
2023/05/12 01:14:20;;;;;;;69.73;37.57;;;12.60;99.90;;;;;;5044001;28;20419;-72
2023/05/12 01:16:51;;;;;;;69.85;35.92;;;12.60;99.90;;;;;;5042941;28;20515;-72
2023/05/12 01:19:32;;;;;;;66.90;36.10;;;12.60;99.90;;;;;;5054252;28;20494;-71
2023/05/12 01:22:00;;;;;;;63.22;35.55;;;12.60;99.90;;;;;;5066790;28;20427;-72
2023/05/12 01:24:30;;;;;;;68.38;34.58;;;12.60;99.90;;;;;;5040171;28;20500;-71
2023/05/12 01:27:00;;;;;;;58.58;32.33;;;12.60;99.90;;;;;;5039368;28;20466;-73
2023/05/12 01:29:28;;;;;;;55.60;31.40;;;12.50;99.90;;;;;;5051205;28;20442;-72
2023/05/12 01:31:55;;;;;;;51.75;30.75;;;12.50;99.90;;;;;;5036223;28;20411;-72
2023/05/12 01:34:22;;;;;;;53.07;31.00;;;12.50;99.90;;;;;;5054582;28;20424;-72
2023/05/12 01:36:49;;;;;;;44.97;29.52;;;12.50;99.90;;;;;;5036542;28;20430;-72
2023/05/12 01:39:16;;;;;;;49.83;30.30;;;12.40;99.90;;;;;;5034832;28;20448;-71
2023/05/12 01:41:43;;;;;;;55.33;31.10;;;12.40;99.90;;;;;;5051229;28;20821;-72
2023/05/12 01:44:11;;;;;;;59.15;30.73;;;12.40;99.90;;;;;;5059475;28;20413;-71
2023/05/12 01:46:37;;;;;;;63.13;31.60;;;12.50;99.90;;;;;;5051756;28;20418;-72
2023/05/12 01:49:04;;;;;;;64.07;32.63;;;12.50;99.90;;;;;;5069750;28;20629;-71
2023/05/12 01:51:31;;;;;;;58.60;31.70;;;12.50;99.90;;;;;;5057956;28;20438;-71
2023/05/12 01:53:58;;;;;;;53.42;31.35;;;12.60;99.90;;;;;;5048715;28;20417;-71
2023/05/12 01:56:25;;;;;;;49.90;30.63;;;12.60;99.90;;;;;;5067004;28;20416;-71
2023/05/12 01:58:52;;;;;;;58.45;30.83;;;12.50;99.90;;;;;;5047116;28;20443;-71
2023/05/12 02:01:20;;;;;;;66.50;32.40;;;12.50;99.90;;;;;;5052685;28;20425;-71
2023/05/12 02:03:46;;;;;;;55.67;31.50;;;12.50;99.90;;;;;;5061171;28;20422;-71
2023/05/12 02:06:13;;;;;;;60.17;31.88;;;12.60;99.90;;;;;;5063953;28;20446;-71
2023/05/12 02:08:40;;;;;;;47.22;28.60;;;12.60;99.90;;;;;;5049239;28;20421;-71
2023/05/12 02:11:08;;;;;;;67.00;32.17;;;12.60;99.90;;;;;;5041590;28;20419;-71
2023/05/12 02:13:35;;;;;;;45.97;28.83;;;12.60;99.90;;;;;;5054440;28;20429;-71
2023/05/12 02:16:02;;;;;;;60.70;30.50;;;12.70;99.90;;;;;;5040842;28;20474;-71
2023/05/12 02:18:30;;;;;;;56.28;30.88;;;12.70;99.90;;;;;;5054980;28;20446;-71
2023/05/12 02:20:57;;;;;;;55.90;30.42;;;12.70;99.90;;;;;;5055301;28;20431;-72
2023/05/12 02:23:24;;;;;;;56.40;30.80;;;12.80;99.90;;;;;;5043170;28;21035;-72
2023/05/12 02:25:51;;;;;;;59.47;32.37;;;12.80;99.90;;;;;;5059996;28;20411;-72
2023/05/12 02:28:17;;;;;;;59.83;31.75;;;12.80;99.90;;;;;;5060178;28;20442;-71
2023/05/12 02:30:48;;;;;;;60.30;30.90;;;12.80;99.90;;;;;;5067847;28;20777;-72
2023/05/12 02:33:15;;;;;;;60.17;31.57;;;12.80;99.90;;;;;;5065860;28;20970;-72
2023/05/12 02:35:43;;;;;;;55.38;30.60;;;12.80;99.90;;;;;;5034281;28;20429;-71
2023/05/12 02:38:10;;;;;;;61.92;31.50;;;12.90;99.90;;;;;;5047698;28;20432;-71
2023/05/12 02:40:37;;;;;;;65.88;31.90;;;12.90;99.90;;;;;;5062003;28;20917;-71
2023/05/12 02:43:04;;;;;;;77.65;33.80;;;12.90;99.90;;;;;;5041298;28;20414;-71
2023/05/12 02:45:31;;;;;;;64.37;32.30;;;13.00;99.90;;;;;;5040616;28;20427;-71
2023/05/12 02:47:57;;;;;;;65.43;32.95;;;13.00;99.90;;;;;;5048290;28;20413;-71
2023/05/12 02:50:24;;;;;;;63.33;32.72;;;13.00;99.90;;;;;;5035927;28;20942;-71
2023/05/12 02:52:52;;;;;;;52.03;30.92;;;13.00;99.90;;;;;;5038238;28;20428;-71
2023/05/12 02:55:19;;;;;;;64.57;32.85;;;13.00;99.90;;;;;;5049431;28;20417;-71
2023/05/12 02:57:46;;;;;;;52.67;31.40;;;13.00;99.90;;;;;;5037225;28;20423;-71
2023/05/12 03:00:13;;;;;;;60.92;32.13;;;13.00;99.90;;;;;;5068233;28;20423;-71
2023/05/12 03:02:41;;;;;;;53.78;31.75;;;13.00;99.90;;;;;;5041501;28;20425;-71
2023/05/12 03:05:09;;;;;;;56.05;33.83;;;13.00;99.90;;;;;;5049380;28;20467;-71
2023/05/12 03:07:35;;;;;;;53.42;34.97;;;13.00;99.90;;;;;;5049200;28;20439;-70
2023/05/12 03:10:04;;;;;;;56.15;37.00;;;13.00;99.90;;;;;;5041755;28;20431;-72
2023/05/12 03:12:31;;;;;;;56.10;35.55;;;13.00;99.90;;;;;;5031651;28;20410;-72
2023/05/12 03:14:58;;;;;;;50.90;30.80;;;13.00;99.90;;;;;;5059764;28;20420;-72
2023/05/12 03:17:25;;;;;;;43.83;27.20;;;13.00;99.90;;;;;;5041037;28;20521;-72
2023/05/12 03:19:51;;;;;;;46.03;26.67;;;12.90;99.90;;;;;;5032442;28;20794;-72
2023/05/12 03:22:18;;;;;;;43.83;25.00;;;13.00;99.90;;;;;;5043235;28;20439;-72
2023/05/12 03:24:45;;;;;;;45.63;24.20;;;12.90;99.90;;;;;;5061800;28;20419;-72
2023/05/12 03:27:13;;;;;;;36.13;21.48;;;12.90;99.90;;;;;;5041539;28;20435;-72
2023/05/12 03:29:40;;;;;;;32.85;19.60;;;12.90;99.90;;;;;;5059682;28;20440;-72
2023/05/12 03:32:07;;;;;;;31.63;18.70;;;12.80;99.90;;;;;;5038083;28;20415;-72
2023/05/12 03:34:34;;;;;;;34.42;18.55;;;12.80;99.90;;;;;;5059703;28;20829;-72
2023/05/12 03:37:01;;;;;;;27.80;17.60;;;12.80;99.90;;;;;;5046570;28;20436;-72
2023/05/12 03:39:27;;;;;;;30.45;18.13;;;12.80;99.90;;;;;;5053836;28;20429;-72
2023/05/12 03:41:54;;;;;;;26.20;16.75;;;12.80;99.90;;;;;;5039369;28;20948;-72
2023/05/12 03:44:22;;;;;;;21.65;15.38;;;12.80;99.90;;;;;;5059181;28;20421;-72
2023/05/12 03:46:49;;;;;;;24.10;15.80;;;12.70;99.90;;;;;;5054430;28;20432;-72
2023/05/12 03:49:16;;;;;;;22.20;15.10;;;12.70;99.90;;;;;;5064282;28;20451;-71
2023/05/12 03:51:42;;;;;;;22.00;15.50;;;12.70;99.90;;;;;;5064130;28;20480;-71
2023/05/12 03:54:09;;;;;;;22.27;15.27;;;12.70;99.90;;;;;;5049914;28;20448;-71
2023/05/12 03:56:36;;;;;;;18.93;14.57;;;12.70;99.90;;;;;;5057189;28;20439;-71
2023/05/12 03:59:02;;;;;;;21.37;14.37;;;12.70;99.90;;;;;;5072247;28;20419;-71
2023/05/12 04:01:30;;;;;;;18.80;13.47;;;12.70;99.90;;;;;;5071447;28;20427;-71
2023/05/12 04:03:57;;;;;;;17.00;12.73;;;12.70;99.90;;;;;;5059706;28;20455;-71
2023/05/12 04:06:24;;;;;;;17.70;12.57;;;12.80;99.90;;;;;;5049111;28;20444;-71
2023/05/12 04:08:51;;;;;;;12.10;10.32;;;12.70;99.90;;;;;;5051432;28;20787;-71
2023/05/12 04:11:17;;;;;;;11.38;10.10;;;12.60;99.90;;;;;;5065396;28;20425;-71
2023/05/12 04:13:44;;;;;;;13.43;10.30;;;12.60;99.90;;;;;;5052011;28;20424;-71
2023/05/12 04:16:11;;;;;;;11.43;9.77;;;12.50;99.90;;;;;;5054930;28;20469;-71
2023/05/12 04:18:39;;;;;;;12.70;10.07;;;12.50;99.90;;;;;;5038048;28;20440;-72
2023/05/12 04:21:06;;;;;;;10.55;9.55;;;12.50;99.90;;;;;;5052514;28;20457;-72
2023/05/12 04:23:33;;;;;;;8.93;8.03;;;12.50;99.90;;;;;;5053751;28;20488;-71
2023/05/12 04:26:03;;;;;;;9.20;8.10;;;12.40;99.90;;;;;;5055164;28;20472;-71
2023/05/12 04:28:30;;;;;;;8.48;7.30;;;12.40;99.90;;;;;;5057691;28;20441;-71
2023/05/12 04:31:01;;;;;;;7.70;6.90;;;12.40;99.90;;;;;;5052876;28;20801;-71
2023/05/12 04:33:28;;;;;;;7.70;6.90;;;12.40;99.90;;;;;;5045820;28;20441;-73
2023/05/12 04:35:57;;;;;;;7.45;6.75;;;12.40;99.90;;;;;;5039393;28;20438;-72
2023/05/12 04:38:24;;;;;;;7.43;6.72;;;12.30;99.90;;;;;;5052327;28;20425;-71
2023/05/12 04:40:51;;;;;;;7.50;6.80;;;12.30;99.90;;;;;;5043562;28;20423;-71
2023/05/12 04:43:18;;;;;;;8.18;7.38;;;12.30;99.90;;;;;;5043950;28;20434;-71
2023/05/12 04:45:45;;;;;;;7.20;6.50;;;12.40;99.90;;;;;;5047055;28;20865;-71
2023/05/12 04:48:12;;;;;;;7.22;6.53;;;12.40;99.90;;;;;;5041411;28;20898;-72
2023/05/12 04:50:38;;;;;;;6.10;5.50;;;12.40;99.90;;;;;;5043893;28;20444;-71
2023/05/12 04:53:06;;;;;;;5.90;5.40;;;12.40;99.90;;;;;;5042735;28;20417;-71
2023/05/12 04:55:33;;;;;;;5.90;5.40;;;12.40;99.90;;;;;;5029746;28;20894;-71
2023/05/12 04:58:00;;;;;;;6.53;5.63;;;12.40;99.90;;;;;;5063965;28;20415;-71
2023/05/12 05:00:27;;;;;;;6.43;5.85;;;12.40;99.90;;;;;;5042537;28;20812;-71
2023/05/12 05:02:54;;;;;;;5.82;5.22;;;12.50;99.90;;;;;;5043606;28;20423;-71
2023/05/12 05:05:21;;;;;;;6.45;5.75;;;12.50;99.90;;;;;;5062382;22;20566;-70
2023/05/12 05:07:47;;;;;;;5.15;4.35;;;12.50;99.90;;;;;;5040012;28;20438;-70
2023/05/12 05:10:16;;;;;;;4.80;4.40;;;12.50;99.90;;;;;;5045151;28;20463;-70
2023/05/12 05:12:42;;;;;;;4.90;4.50;;;12.50;99.90;;;;;;5047250;28;20421;-71
2023/05/12 05:15:10;;;;;;;6.70;5.40;;;12.40;99.90;;;;;;5037722;28;20516;-70
2023/05/12 05:17:38;;;;;;;5.90;5.40;;;12.50;99.90;;;;;;5044930;28;20429;-70
2023/05/12 05:20:06;;;;;;;5.45;4.95;;;12.50;99.90;;;;;;5037732;28;20421;-70
2023/05/12 05:22:33;;;;;;;4.95;4.55;;;12.50;99.90;;;;;;5041659;28;20622;-70
2023/05/12 05:24:59;;;;;;;4.78;4.13;;;12.50;99.90;;;;;;5043183;28;20441;-70
2023/05/12 05:27:28;;;;;;;4.80;4.30;;;12.50;99.90;;;;;;5038847;28;20890;-71
2023/05/12 05:29:54;;;;;;;5.13;4.53;;;12.50;99.90;;;;;;5044277;28;20421;-70
2023/05/12 05:32:21;;;;;;;5.50;5.00;;;12.40;99.90;;;;;;5044327;28;20441;-71
2023/05/12 05:34:48;;;;;;;5.38;4.95;;;12.50;99.90;;;;;;5043643;28;20433;-69
2023/05/12 05:37:14;;;;;;;5.20;4.80;;;12.50;99.90;;;;;;5041213;28;20448;-70
2023/05/12 05:39:41;;;;;;;5.10;4.70;;;12.50;99.90;;;;;;5042519;28;20440;-70
2023/05/12 05:42:08;;;;;;;4.55;4.15;;;12.50;99.90;;;;;;5054078;28;20433;-70
2023/05/12 05:44:36;;;;;;;4.88;4.38;;;12.50;99.90;;;;;;5054506;28;20420;-70
2023/05/12 05:47:03;;;;;;;4.82;4.40;;;12.50;99.90;;;;;;5045036;28;20440;-70
2023/05/12 05:49:29;;;;;;;5.05;4.65;;;12.60;99.90;;;;;;5044160;28;20925;-70
2023/05/12 05:51:56;;;;;;;5.20;4.80;;;12.60;99.90;;;;;;5044185;28;20505;-70
2023/05/12 05:54:24;;;;;;;5.20;4.80;;;12.70;99.90;;;;;;5044796;28;20489;-70
2023/05/12 05:56:50;;;;;;;5.05;4.55;;;12.70;99.90;;;;;;5030607;28;20477;-70
2023/05/12 05:59:17;;;;;;;4.90;4.30;;;12.80;99.90;;;;;;5040329;28;20413;-70
2023/05/12 06:01:45;;;;;;;5.17;4.77;;;12.80;99.90;;;;;;5043250;28;20426;-70
2023/05/12 06:04:12;;;;;;;4.55;4.15;;;12.80;99.90;;;;;;5039482;28;20493;-72
2023/05/12 06:06:39;;;;;;;5.43;4.93;;;12.90;99.90;;;;;;5042442;28;20433;-71
2023/05/12 06:09:07;;;;;;;4.80;4.40;;;13.00;99.90;;;;;;5041593;28;20440;-72
2023/05/12 06:11:34;;;;;;;4.68;4.18;;;13.00;99.90;;;;;;5045324;28;20493;-71
2023/05/12 06:14:01;;;;;;;4.72;4.32;;;13.10;99.90;;;;;;5035303;28;20433;-70
2023/05/12 06:16:29;;;;;;;5.03;4.63;;;13.20;99.90;;;;;;5045044;28;21507;-71
2023/05/12 06:18:57;;;;;;;4.70;4.30;;;13.20;99.90;;;;;;5037260;28;20433;-72
2023/05/12 06:21:24;;;;;;;4.60;4.20;;;13.20;99.90;;;;;;5042169;28;20819;-72
2023/05/12 06:23:51;;;;;;;4.75;4.35;;;13.20;99.90;;;;;;5043080;28;20486;-71
2023/05/12 06:26:17;;;;;;;4.78;4.30;;;13.20;99.90;;;;;;5045269;28;20455;-71
2023/05/12 06:28:44;;;;;;;4.63;4.18;;;13.30;99.90;;;;;;5032430;28;20413;-71
2023/05/12 06:31:11;;;;;;;4.05;3.75;;;13.30;99.90;;;;;;5038492;28;20441;-71
2023/05/12 06:33:37;;;;;;;5.05;4.57;;;13.30;99.90;;;;;;5037735;28;20426;-71
2023/05/12 06:36:07;;;;;;;4.82;4.43;;;13.40;99.90;;;;;;5031636;28;20448;-72
2023/05/12 06:38:34;;;;;;;4.18;3.88;;;13.50;99.90;;;;;;5040001;28;20423;-71
2023/05/12 06:41:01;;;;;;;4.82;4.43;;;13.60;99.90;;;;;;5041808;28;20844;-72
2023/05/12 06:43:27;;;;;;;4.20;3.90;;;13.60;99.90;;;;;;5044592;28;20436;-72
2023/05/12 06:45:55;;;;;;;4.45;3.70;;;13.70;99.90;;;;;;5045237;28;20424;-73
2023/05/12 06:48:22;;;;;;;4.68;3.70;;;13.80;99.90;;;;;;5030983;28;20414;-73
2023/05/12 06:50:49;;;;;;;4.28;3.95;;;13.80;99.90;;;;;;5041430;28;20544;-73
2023/05/12 06:53:17;;;;;;;4.40;4.10;;;13.80;99.90;;;;;;5032625;28;20537;-73
2023/05/12 06:55:45;;;;;;;3.95;3.65;;;13.80;99.90;;;;;;5037311;28;20428;-72
2023/05/12 06:58:12;;;;;;;4.47;4.07;;;13.80;99.90;;;;;;5037740;28;20533;-72
2023/05/12 07:00:39;;;;;;;3.70;3.40;;;13.90;99.90;;;;;;5036085;28;20413;-72
2023/05/12 07:03:08;;;;;;;4.80;4.40;;;14.00;99.90;;;;;;5037359;28;20486;-72
2023/05/12 07:05:35;;;;;;;4.40;3.90;;;14.10;99.90;;;;;;5029760;28;20439;-72
2023/05/12 07:08:02;;;;;;;4.60;4.00;;;14.20;99.90;;;;;;5036786;28;20519;-72
2023/05/12 07:10:31;;;;;;;3.90;3.60;;;14.30;99.90;;;;;;5041544;28;20925;-72
2023/05/12 07:12:58;;;;;;;4.07;3.78;;;14.40;99.90;;;;;;5044110;28;20424;-72
2023/05/12 07:15:25;;;;;;;3.95;3.65;;;14.50;99.90;;;;;;5031309;28;20474;-72
2023/05/12 07:17:53;;;;;;;4.40;3.63;;;14.70;99.90;;;;;;5044198;28;20429;-72
2023/05/12 07:20:19;;;;;;;4.10;3.80;;;14.80;99.90;;;;;;5034068;28;20487;-72
2023/05/12 07:22:46;;;;;;;3.60;3.30;;;14.90;99.90;;;;;;5035651;28;20434;-72
2023/05/12 07:25:14;;;;;;;3.72;3.42;;;14.80;99.90;;;;;;5041064;28;20429;-72
2023/05/12 07:27:43;;;;;;;3.90;3.60;;;14.80;99.90;;;;;;5043422;28;20459;-72
2023/05/12 07:30:10;;;;;;;4.72;4.30;;;14.70;99.90;;;;;;5043014;28;20437;-72
2023/05/12 07:32:37;;;;;;;4.10;3.40;;;14.70;99.90;;;;;;5036888;28;20495;-73
2023/05/12 07:35:04;;;;;;;3.30;3.00;;;14.70;99.90;;;;;;5029901;28;20423;-72
2023/05/12 07:37:31;;;;;;;3.70;3.40;;;14.70;99.90;;;;;;5040831;28;20428;-71
2023/05/12 07:39:58;;;;;;;4.50;3.40;;;14.70;99.80;;;;;;5031234;28;20409;-71
2023/05/12 07:42:25;;;;;;;3.27;3.07;;;14.80;99.90;;;;;;5043011;28;20452;-71
2023/05/12 07:44:53;;;;;;;3.50;3.20;;;14.90;99.90;;;;;;5038327;28;20437;-71
2023/05/12 07:47:19;;;;;;;3.40;3.10;;;15.00;99.90;;;;;;5028762;28;20444;-71
2023/05/12 07:49:46;;;;;;;3.33;3.03;;;15.00;99.70;;;;;;5038720;28;20785;-71
2023/05/12 07:52:13;;;;;;;3.53;3.23;;;15.10;99.90;;;;;;5040032;28;20799;-71
2023/05/12 07:54:40;;;;;;;3.10;2.80;;;15.10;99.10;;;;;;5036626;28;20502;-71
2023/05/12 07:57:06;;;;;;;3.70;2.93;;;15.10;99.00;;;;;;5036124;28;20413;-71
2023/05/12 07:59:33;;;;;;;3.08;2.78;;;15.20;99.10;;;;;;5035327;28;20425;-72
2023/05/12 08:02:01;;;;;;;2.95;2.75;;;15.20;98.40;;;;;;5041695;28;20433;-72
2023/05/12 08:04:28;;;;;;;3.47;2.58;;;15.20;97.90;;;;;;5038523;28;20732;-72
2023/05/12 08:06:55;;;;;;;2.60;2.40;;;15.20;97.60;;;;;;5042756;28;20886;-72
2023/05/12 08:09:21;;;;;;;2.70;2.50;;;15.20;96.90;;;;;;5037701;28;20422;-71
2023/05/12 08:11:49;;;;;;;2.60;2.40;;;15.30;97.10;;;;;;5036416;28;20515;-71
2023/05/12 08:14:16;;;;;;;2.80;2.30;;;15.40;96.60;;;;;;5029263;28;20619;-72
2023/05/12 08:16:44;;;;;;;2.70;2.40;;;15.60;96.50;;;;;;5037872;28;21027;-72
2023/05/12 08:19:12;;;;;;;3.00;2.30;;;15.80;95.70;;;;;;5041004;28;20576;-72
2023/05/12 08:21:39;;;;;;;2.20;2.00;;;16.10;95.40;;;;;;5042952;28;20425;-72
2023/05/12 08:24:06;;;;;;;2.40;2.20;;;16.30;94.30;;;;;;5043205;28;20422;-72
2023/05/12 08:26:32;;;;;;;1.90;1.80;;;16.40;93.40;;;;;;5032224;28;20418;-72
2023/05/12 08:29:00;;;;;;;5.10;3.00;;;16.50;92.50;;;;;;5031844;28;20413;-72
2023/05/12 08:31:27;;;;;;;2.03;1.90;;;16.40;92.20;;;;;;5044889;28;20985;-72
2023/05/12 08:33:53;;;;;;;2.23;2.03;;;16.30;92.10;;;;;;5041467;28;20422;-72
2023/05/12 08:36:22;;;;;;;2.20;2.10;;;16.20;92.50;;;;;;5038241;28;21123;-72
2023/05/12 08:38:48;;;;;;;2.50;2.30;;;16.30;92.50;;;;;;5039506;28;20434;-71
2023/05/12 08:41:18;;;;;;;2.20;2.10;;;16.30;92.10;;;;;;5033981;28;20427;-72
2023/05/12 08:43:48;;;;;;;2.13;1.92;;;16.30;92.00;;;;;;5047091;28;20489;-72
2023/05/12 08:46:15;;;;;;;2.28;2.08;;;16.50;91.90;;;;;;5038292;28;20429;-72
2023/05/12 08:48:43;;;;;;;2.10;1.90;;;16.60;91.70;;;;;;5044934;28;20452;-72
2023/05/12 08:51:11;;;;;;;2.50;1.98;;;16.80;91.10;;;;;;5033128;28;20423;-71
2023/05/12 08:53:41;;;;;;;2.20;2.00;;;17.10;91.20;;;;;;5044339;28;20478;-72
2023/05/12 08:56:09;;;;;;;2.50;2.10;;;17.30;90.50;;;;;;5032867;28;20421;-72
2023/05/12 08:58:37;;;;;;;2.40;2.00;;;17.30;86.80;;;;;;5035117;28;20518;-72
2023/05/12 09:01:05;;;;;;;2.00;1.75;;;17.30;87.10;;;;;;5038410;28;20443;-72
2023/05/12 09:03:33;;;;;;;3.10;1.80;;;17.30;85.60;;;;;;5037262;28;20431;-72
2023/05/12 09:06:00;;;;;;;2.45;1.90;;;17.30;86.90;;;;;;5032851;28;20500;-72
2023/05/12 09:08:29;;;;;;;2.10;1.90;;;17.30;86.50;;;;;;5039564;28;20832;-72
2023/05/12 09:10:58;;;;;;;2.30;1.90;;;17.30;85.40;;;;;;5046793;28;20928;-71
2023/05/12 09:13:33;;;;;;;2.20;2.05;;;17.40;85.70;;;;;;5034556;28;20427;-71
2023/05/12 09:16:02;;;;;;;2.10;1.90;;;17.50;85.20;;;;;;5045737;28;20803;-72
2023/05/12 09:18:42;;;;;;;2.08;1.95;;;17.60;86.30;;;;;;5046949;28;20440;-72
2023/05/12 09:21:09;;;;;;;2.17;1.98;;;17.70;85.80;;;;;;5038364;28;20420;-73
2023/05/12 09:23:36;;;;;;;2.45;2.25;;;17.70;84.00;;;;;;5043607;28;20433;-73
2023/05/12 09:26:05;;;;;;;2.20;2.00;;;17.70;83.30;;;;;;5045676;28;20421;-72
2023/05/12 09:28:36;;;;;;;2.10;1.90;;;17.90;84.00;;;;;;5045423;28;20437;-73
2023/05/12 09:31:13;;;;;;;2.22;2.03;;;18.00;80.60;;;;;;5043167;28;20425;-73
2023/05/12 09:33:40;;;;;;;2.00;1.90;;;18.10;80.80;;;;;;5036382;28;20422;-73
2023/05/12 09:36:07;;;;;;;2.40;2.20;;;18.20;81.60;;;;;;5035699;28;20517;-73
2023/05/12 09:38:34;;;;;;;1.90;1.80;;;18.10;79.80;;;;;;5039624;28;20535;-73
2023/05/12 09:41:01;;;;;;;2.67;2.47;;;18.10;80.30;;;;;;5044175;28;20439;-71
2023/05/12 09:43:29;;;;;;;3.63;2.07;;;18.10;81.40;;;;;;5031153;28;20526;-73
2023/05/12 09:45:55;;;;;;;2.80;2.42;;;18.00;79.90;;;;;;5038575;28;20460;-73
2023/05/12 09:48:22;;;;;;;4.10;3.80;;;18.10;79.70;;;;;;5041214;28;20519;-73
2023/05/12 09:50:51;;;;;;;2.50;2.30;;;18.20;79.80;;;;;;5039999;28;20445;-71
2023/05/12 09:53:21;;;;;;;3.63;2.60;;;18.20;77.80;;;;;;5032302;28;20532;-71
2023/05/12 09:55:48;;;;;;;2.30;2.10;;;18.20;78.20;;;;;;5046478;28;20475;-72
2023/05/12 09:58:17;;;;;;;2.60;2.40;;;18.30;77.90;;;;;;5040437;28;20435;-73
2023/05/12 10:00:45;;;;;;;2.88;2.60;;;18.30;77.80;;;;;;5039284;28;21023;-71
2023/05/12 10:03:14;;;;;;;2.60;2.40;;;18.40;78.00;;;;;;5030477;28;20452;-76
2023/05/12 10:05:47;;;;;;;2.30;2.08;;;18.40;78.40;;;;;;5040721;28;20480;-72
2023/05/12 10:08:19;;;;;;;3.60;2.08;;;18.70;78.50;;;;;;5038907;28;20910;-73
2023/05/12 10:10:49;;;;;;;2.58;2.38;;;19.10;74.60;;;;;;5043751;28;20413;-73
2023/05/12 10:13:16;;;;;;;2.40;2.20;;;19.40;74.80;;;;;;5036153;28;20420;-73
2023/05/12 10:15:46;;;;;;;2.10;1.90;;;19.80;72.30;;;;;;5032565;28;20428;-73
2023/05/12 10:18:14;;;;;;;2.30;2.10;;;20.00;69.20;;;;;;5045720;28;20464;-73
2023/05/12 10:20:42;;;;;;;2.30;2.10;;;20.00;70.40;;;;;;5041411;28;20928;-75
2023/05/12 10:23:12;;;;;;;2.47;1.90;;;20.20;67.90;;;;;;5044039;28;20543;-75
2023/05/12 10:25:41;;;;;;;2.38;2.17;;;20.30;67.00;;;;;;5040329;28;20836;-75
2023/05/12 10:28:08;;;;;;;2.85;2.53;;;20.30;65.70;;;;;;5045205;28;20421;-75
2023/05/12 10:30:36;;;;;;;2.90;2.17;;;20.20;65.50;;;;;;5027449;28;20453;-73
2023/05/12 10:33:04;;;;;;;2.40;2.20;;;20.10;64.60;;;;;;5035548;28;20440;-74
2023/05/12 10:35:35;;;;;;;2.10;2.00;;;20.20;65.80;;;;;;5036696;28;20443;-74
2023/05/12 10:38:05;;;;;;;2.90;2.20;;;20.30;63.70;;;;;;5044587;28;20483;-75
2023/05/12 10:40:32;;;;;;;2.00;1.80;;;20.50;63.20;;;;;;5036574;28;20434;-73
2023/05/12 10:43:00;;;;;;;2.13;2.00;;;20.80;61.50;;;;;;5036752;28;20827;-73
2023/05/12 10:45:28;;;;;;;2.10;1.50;;;21.00;60.60;;;;;;5033784;28;20444;-74
2023/05/12 10:48:07;;;;;;;2.15;1.70;;;21.10;58.80;;;;;;5034263;28;20517;-75
2023/05/12 10:50:34;;;;;;;2.20;2.00;;;21.10;54.90;;;;;;5032986;28;20839;-73
2023/05/12 10:53:01;;;;;;;2.33;2.10;;;20.90;56.50;;;;;;5039208;28;20557;-73
2023/05/12 10:55:33;;;;;;;2.80;2.20;;;20.80;56.90;;;;;;5033764;28;20423;-73
2023/05/12 10:58:08;;;;;;;2.33;1.80;;;20.70;56.80;;;;;;5038193;28;20449;-75
2023/05/12 11:00:44;;;;;;;3.72;2.80;;;20.70;59.50;;;;;;5037458;28;20789;-75
2023/05/12 11:03:16;;;;;;;4.05;2.67;;;20.70;62.10;;;;;;5040703;28;20505;-73
2023/05/12 11:05:44;;;;;;;2.75;2.47;;;20.80;63.00;;;;;;5039911;28;20753;-74
2023/05/12 11:08:11;;;;;;;2.42;2.22;;;20.90;64.00;;;;;;5037744;28;20465;-73
2023/05/12 11:10:42;;;;;;;2.60;2.40;;;20.80;61.80;;;;;;5041427;28;20413;-76
2023/05/12 11:13:09;;;;;;;2.70;2.50;;;20.70;63.20;;;;;;5032543;28;20822;-73
2023/05/12 11:15:36;;;;;;;2.33;2.10;;;20.70;64.80;;;;;;5031499;28;20427;-75
2023/05/12 11:18:03;;;;;;;2.40;2.20;;;20.60;64.80;;;;;;5049865;28;20433;-76
2023/05/12 11:20:32;;;;;;;2.80;2.60;;;20.60;66.00;;;;;;5044141;28;20521;-74
2023/05/12 11:22:58;;;;;;;2.50;2.30;;;20.50;65.10;;;;;;5048434;28;20732;-73
2023/05/12 11:25:27;;;;;;;2.55;2.20;;;20.60;64.70;;;;;;5080297;22;20435;-72
2023/05/12 11:27:54;;;;;;;2.50;2.30;;;20.80;65.90;;;;;;5064140;28;20503;-73
2023/05/12 11:30:21;;;;;;;2.60;2.40;;;21.10;64.90;;;;;;5067817;28;20442;-71
2023/05/12 11:32:48;;;;;;;2.90;2.05;;;21.20;60.80;;;;;;5053178;28;20429;-75
2023/05/12 11:35:17;;;;;;;2.30;2.20;;;21.30;59.60;;;;;;5072068;28;20436;-74
2023/05/12 11:37:45;;;;;;;2.45;2.20;;;21.40;58.40;;;;;;5059983;28;20488;-72
2023/05/12 11:40:20;;;;;;;2.70;2.10;;;21.50;58.40;;;;;;5074884;28;20413;-74
2023/05/12 11:42:50;;;;;;;2.40;2.20;;;21.60;58.50;;;;;;5079733;28;20411;-73
2023/05/12 11:45:22;;;;;;;2.88;2.10;;;21.60;57.00;;;;;;5053432;28;20433;-75
2023/05/12 11:47:49;;;;;;;2.50;2.00;;;21.70;58.10;;;;;;5045377;28;20426;-74
2023/05/12 11:50:23;;;;;;;2.50;2.40;;;21.80;56.30;;;;;;5050029;28;20429;-76
2023/05/12 11:52:52;;;;;;;2.50;2.30;;;21.90;54.00;;;;;;5046703;28;20911;-76
2023/05/12 11:55:24;;;;;;;2.33;2.13;;;21.90;54.90;;;;;;5040577;28;20737;-76
2023/05/12 11:58:02;;;;;;;2.40;2.10;;;22.10;54.80;;;;;;5041014;28;20435;-72
2023/05/12 12:00:31;;;;;;;3.60;2.20;;;22.50;54.80;;;;;;5046771;28;20464;-74
2023/05/12 12:03:08;;;;;;;2.28;2.05;;;22.80;50.40;;;;;;5041050;28;20432;-75
2023/05/12 12:05:35;;;;;;;2.10;2.00;;;22.90;50.20;;;;;;5043076;28;20447;-76
2023/05/12 12:08:08;;;;;;;2.05;1.95;;;23.00;49.90;;;;;;5042600;28;20437;-75
2023/05/12 12:10:35;;;;;;;2.70;2.20;;;23.00;48.60;;;;;;5046287;28;20502;-74
2023/05/12 12:13:01;;;;;;;2.40;2.30;;;23.00;46.60;;;;;;5052857;28;20636;-75
2023/05/12 12:15:28;;;;;;;2.55;2.30;;;23.10;47.00;;;;;;5047708;28;20491;-75
2023/05/12 12:17:55;;;;;;;2.50;2.30;;;23.30;46.50;;;;;;5046315;28;20526;-75
2023/05/12 12:20:23;;;;;;;2.45;2.25;;;23.30;46.30;;;;;;5054024;28;20425;-72
2023/05/12 12:22:50;;;;;;;2.30;2.10;;;23.20;44.80;;;;;;5050861;28;20803;-73
2023/05/12 12:25:19;;;;;;;2.20;2.10;;;23.00;45.30;;;;;;5042381;28;20916;-75
2023/05/12 12:27:46;;;;;;;2.63;2.42;;;22.80;45.20;;;;;;5037719;28;20437;-73
2023/05/12 12:30:14;;;;;;;3.00;2.50;;;22.60;45.80;;;;;;5046884;28;20442;-72
2023/05/12 12:32:41;;;;;;;3.15;2.10;;;22.50;46.10;;;;;;5047390;28;20456;-75
2023/05/12 12:35:08;;;;;;;2.50;2.30;;;22.30;46.00;;;;;;5050333;28;21689;-73
2023/05/12 12:37:36;;;;;;;2.58;2.38;;;22.10;46.60;;;;;;5050810;28;20433;-72
2023/05/12 12:40:06;;;;;;;3.58;2.40;;;22.00;47.40;;;;;;5065567;28;20895;-72
2023/05/12 12:42:35;;;;;;;2.63;2.42;;;21.90;48.00;;;;;;5051747;28;20427;-74